Time;durP1;ratioP1;P1;durP2;ratioP2;P2;SDS_P1;SDS_P2;PMS_P1;PMS_P2;Temp;Humidity;BMP_temperature;BMP_pressure;BME280_temperature;BME280_humidity;BME280_pressure;Samples;Min_cycle;Max_cycle;Signal;HPM_P1;HPM_P2
2021/03/04 00:00:12;;;;;;;118.13;67.80;;;;;;;1.44;81.50;101160.02;1698202;84;21629;-83
2021/03/04 00:02:43;;;;;;;115.17;63.87;;;;;;;1.43;81.34;101156.94;1698199;84;21172;-83
2021/03/04 00:05:12;;;;;;;125.12;67.25;;;;;;;1.38;81.05;101159.20;1698349;84;21226;-83
2021/03/04 00:07:44;;;;;;;120.00;65.92;;;;;;;1.36;81.21;101158.20;1698350;84;21958;-83
2021/03/04 00:10:16;;;;;;;123.55;63.40;;;;;;;1.34;81.16;101158.09;1698236;84;21744;-84
2021/03/04 00:12:43;;;;;;;121.25;62.00;;;;;;;1.34;81.38;101158.09;1698403;84;21434;-83
2021/03/04 00:15:12;;;;;;;118.60;65.12;;;;;;;1.40;81.50;101152.42;1698202;84;21693;-85
2021/03/04 00:17:44;;;;;;;116.03;61.90;;;;;;;1.35;81.13;101157.31;1725641;83;21160;-84
2021/03/04 00:20:18;;;;;;;122.37;63.70;;;;;;;1.33;81.33;101156.31;1725636;82;21200;-84
2021/03/04 00:22:45;;;;;;;121.07;62.45;;;;;;;1.31;81.13;101151.79;1725508;82;21582;-83
2021/03/04 00:25:19;;;;;;;128.07;65.80;;;;;;;1.26;81.21;101145.01;1725538;83;21666;-84
2021/03/04 00:27:46;;;;;;;119.82;65.62;;;;;;;1.26;81.39;101142.78;1725466;83;21144;-83
2021/03/04 00:30:16;;;;;;;120.50;61.85;;;;;;;1.28;81.29;101134.75;1725677;83;21148;-82
2021/03/04 00:32:44;;;;;;;109.65;57.20;;;;;;;1.25;81.31;101131.93;1725614;83;21261;-83
2021/03/04 00:35:12;;;;;;;107.50;57.10;;;;;;;1.24;81.49;101127.52;1725490;83;21227;-83
2021/03/04 00:37:39;;;;;;;113.00;59.18;;;;;;;1.21;81.26;101120.85;1725563;83;21144;-83
2021/03/04 00:40:16;;;;;;;115.82;59.25;;;;;;;1.16;81.25;101114.04;1725594;83;21171;-83
2021/03/04 00:42:44;;;;;;;117.15;59.83;;;;;;;1.14;81.18;101113.92;1742585;81;21611;-82
2021/03/04 00:45:25;;;;;;;;;;;;;;;;;;;;;
2021/03/04 00:47:58;;;;;;;110.33;67.50;;;;;;;1.04;81.14;101098.95;1795612;78;38920;-84
2021/03/04 00:50:25;;;;;;;112.37;61.40;;;;;;;1.04;81.14;101098.95;1797172;79;21123;-83
2021/03/04 00:52:52;;;;;;;117.72;61.68;;;;;;;1.07;81.20;101093.96;1797068;79;21143;-83
2021/03/04 00:55:20;;;;;;;103.50;58.48;;;;;;;1.06;81.08;101090.88;1796869;79;21103;-84
2021/03/04 00:57:47;;;;;;;108.70;55.23;;;;;;;1.04;81.04;101085.99;1797205;79;21140;-84
2021/03/04 01:00:16;;;;;;;105.92;56.18;;;;;;;1.03;81.10;101080.30;1797183;79;21179;-84
2021/03/04 01:02:43;;;;;;;111.03;57.45;;;;;;;1.01;81.21;101070.22;1797147;79;21144;-83
2021/03/04 01:05:11;;;;;;;109.48;57.62;;;;;;;0.99;81.17;101072.70;1796955;79;21962;-83
2021/03/04 01:07:38;;;;;;;112.10;57.70;;;;;;;0.96;81.17;101066.92;1796915;79;21171;-83
2021/03/04 01:10:11;;;;;;;108.50;56.70;;;;;;;0.95;81.26;101065.11;1797002;79;21171;-82
2021/03/04 01:12:39;;;;;;;106.87;56.20;;;;;;;0.93;81.22;101058.92;1797008;79;22269;-83
2021/03/04 01:15:10;;;;;;;99.77;54.35;;;;;;;0.90;81.12;101053.92;1796999;79;21590;-83
2021/03/04 01:17:42;;;;;;;109.07;55.28;;;;;;;0.86;81.07;101053.22;1796948;79;21884;-83
2021/03/04 01:20:11;;;;;;;117.28;59.60;;;;;;;0.82;81.10;101044.73;1796944;79;21215;-83
2021/03/04 01:22:38;;;;;;;108.85;58.20;;;;;;;0.78;81.09;101038.44;1797094;79;21163;-82
2021/03/04 01:25:07;;;;;;;136.00;67.22;;;;;;;0.73;81.04;101026.86;1796893;79;21139;-84
2021/03/04 01:27:35;;;;;;;136.50;68.92;;;;;;;0.69;81.01;101032.22;1764406;81;21159;-83
2021/03/04 01:30:05;;;;;;;130.93;65.80;;;;;;;0.66;81.08;101035.03;1788511;80;21952;-83
2021/03/04 01:32:32;;;;;;;131.97;69.05;;;;;;;0.64;81.07;101036.58;1788561;80;21236;-83
2021/03/04 01:35:14;;;;;;;132.93;65.40;;;;;;;0.60;81.13;101026.80;1788648;80;21181;-84
2021/03/04 01:37:42;;;;;;;124.47;63.25;;;;;;;0.56;81.18;101024.03;1788654;80;21631;-86
2021/03/04 01:40:12;;;;;;;124.47;62.83;;;;;;;0.57;81.26;101026.21;1788659;80;21594;-84
2021/03/04 01:42:40;;;;;;;125.38;59.42;;;;;;;0.52;81.30;101023.28;1788555;80;21692;-83
2021/03/04 01:45:23;;;;;;;120.53;60.52;;;;;;;0.51;81.36;101024.50;1788530;80;21634;-83
2021/03/04 01:47:53;;;;;;;111.88;57.62;;;;;;;0.48;81.45;101017.80;1781664;80;21645;-83
2021/03/04 01:50:24;;;;;;;110.50;57.78;;;;;;;0.47;81.54;101003.03;1780325;80;21081;-84
2021/03/04 01:52:51;;;;;;;113.28;55.78;;;;;;;0.48;81.66;101004.44;1780418;80;21128;-83
2021/03/04 01:55:18;;;;;;;103.95;53.58;;;;;;;0.47;81.63;101000.45;1788602;80;21900;-83
2021/03/04 01:57:46;;;;;;;105.03;55.38;;;;;;;0.46;81.64;100999.55;1788464;80;21137;-83
2021/03/04 02:00:15;;;;;;;105.87;52.10;;;;;;;0.42;81.52;100994.96;1788120;80;21180;-83
2021/03/04 02:03:16;;;;;;;106.75;53.28;;;;;;;0.40;81.44;100990.08;1788155;80;21159;-83
2021/03/04 02:05:43;;;;;;;102.02;50.92;;;;;;;0.38;81.53;100992.55;1788018;80;21171;-82
2021/03/04 02:08:33;;;;;;;99.83;49.65;;;;;;;0.37;81.65;100997.62;1788189;80;21164;-84
2021/03/04 02:11:13;;;;;;;73.45;41.02;;;;;;;0.45;82.29;101000.37;1787905;80;21571;-82
2021/03/04 02:14:05;;;;;;;74.65;39.45;;;;;;;0.52;82.64;100997.78;1787954;80;21140;-82
2021/03/04 02:16:35;;;;;;;67.15;37.55;;;;;;;0.66;83.39;100986.70;1788093;80;21137;-84
2021/03/04 02:19:06;;;;;;;74.90;39.40;;;;;;;0.95;84.08;100991.23;1788058;80;21586;-84
2021/03/04 02:21:53;;;;;;;71.87;38.88;;;;;;;1.16;84.33;100986.99;1787870;80;23014;-84
2021/03/04 02:24:32;;;;;;;81.40;44.20;;;;;;;1.34;84.32;100997.29;1788224;80;21164;-84
2021/03/04 02:27:14;;;;;;;78.67;42.17;;;;;;;1.52;84.28;100992.80;1749156;80;21375;-83
2021/03/04 02:29:47;;;;;;;76.35;41.95;;;;;;;1.63;84.02;100992.20;1788051;80;21171;-83
2021/03/04 02:32:15;;;;;;;75.55;41.88;;;;;;;1.67;83.85;100992.52;1788366;80;21736;-83
2021/03/04 02:34:48;;;;;;;68.28;41.20;;;;;;;1.74;83.88;101006.77;1788060;80;21894;-83
2021/03/04 02:37:18;;;;;;;72.23;41.27;;;;;;;1.82;84.04;101008.55;1788265;80;21275;-83
2021/03/04 02:39:48;;;;;;;78.42;45.92;;;;;;;1.97;84.34;101011.23;1788052;80;21204;-83
2021/03/04 02:42:22;;;;;;;79.32;44.70;;;;;;;2.15;84.43;101015.00;1788099;80;21210;-84
2021/03/04 02:44:54;;;;;;;76.22;44.45;;;;;;;2.32;84.60;101019.54;1788104;80;21124;-83
2021/03/04 02:47:21;;;;;;;86.60;48.92;;;;;;;2.48;84.50;101021.81;1789829;80;22899;-83
2021/03/04 02:49:49;;;;;;;80.75;48.23;;;;;;;2.64;84.35;101031.03;1791853;80;21143;-83
2021/03/04 02:52:18;;;;;;;72.58;42.62;;;;;;;2.78;84.21;101030.97;1791945;80;21242;-84
2021/03/04 02:54:45;;;;;;;78.05;45.40;;;;;;;2.91;84.01;101034.42;1791923;80;21635;-83
2021/03/04 02:57:13;;;;;;;77.00;44.13;;;;;;;3.02;83.71;101026.35;1791898;80;21191;-82
2021/03/04 02:59:40;;;;;;;83.05;45.40;;;;;;;3.13;83.49;101028.30;1792057;80;22118;-83
2021/03/04 03:02:08;;;;;;;72.27;42.85;;;;;;;3.19;83.16;101033.48;1791756;80;21171;-82
2021/03/04 03:04:36;;;;;;;81.40;45.88;;;;;;;3.25;83.01;101031.23;1791896;80;21172;-83
2021/03/04 03:07:04;;;;;;;86.87;47.80;;;;;;;3.33;82.84;101030.37;1757123;81;21152;-84
2021/03/04 03:09:31;;;;;;;77.82;44.95;;;;;;;3.40;82.66;101032.94;1770151;81;21126;-82
2021/03/04 03:11:58;;;;;;;75.00;42.40;;;;;;;3.45;82.48;101040.20;1770050;81;21890;-84
2021/03/04 03:14:28;;;;;;;69.55;40.48;;;;;;;3.49;82.31;101046.45;1770128;81;21125;-85
2021/03/04 03:16:55;;;;;;;68.05;40.10;;;;;;;3.48;81.73;101048.59;1770159;81;21208;-83
2021/03/04 03:19:22;;;;;;;71.37;39.42;;;;;;;3.43;81.48;101055.22;1770036;81;21140;-85
2021/03/04 03:21:49;;;;;;;57.93;33.88;;;;;;;3.37;81.12;101053.16;1770110;81;21181;-84
2021/03/04 03:24:17;;;;;;;55.08;31.00;;;;;;;3.29;80.91;101041.00;1770130;81;21889;-83
2021/03/04 03:26:44;;;;;;;50.65;30.82;;;;;;;3.22;80.61;101071.36;1769959;81;21176;-82
2021/03/04 03:29:11;;;;;;;50.20;31.17;;;;;;;3.08;80.57;101047.13;1767422;81;21097;-83
2021/03/04 03:31:40;;;;;;;42.80;25.43;;;;;;;3.03;80.72;101052.87;1770136;81;21161;-83
2021/03/04 03:34:08;;;;;;;44.95;27.55;;;;;;;3.05;80.81;101051.25;1770115;81;21177;-83
2021/03/04 03:36:35;;;;;;;43.40;27.67;;;;;;;3.03;80.73;101058.95;1742511;81;22862;-82
2021/03/04 03:39:06;;;;;;;41.45;25.48;;;;;;;3.02;80.70;101059.78;1769893;81;21141;-82
2021/03/04 03:41:39;;;;;;;36.83;24.20;;;;;;;3.00;80.55;101065.27;1769977;81;21113;-83
2021/03/04 03:44:08;;;;;;;40.33;23.73;;;;;;;2.90;80.48;101059.91;1769869;81;21588;-83
2021/03/04 03:46:36;;;;;;;43.40;25.92;;;;;;;2.91;80.70;101064.73;1770185;80;21193;-83
2021/03/04 03:49:10;;;;;;;33.23;22.65;;;;;;;2.94;80.73;101070.52;1772801;80;22849;-83
2021/03/04 03:51:43;;;;;;;37.67;26.20;;;;;;;2.95;80.70;101066.71;1779563;80;21128;-83
2021/03/04 03:54:10;;;;;;;35.65;23.42;;;;;;;2.95;80.66;101071.91;1779915;80;21160;-85
2021/03/04 03:56:42;;;;;;;33.13;22.85;;;;;;;2.94;80.52;101066.20;1772577;80;21243;-84
2021/03/04 03:59:11;;;;;;;31.15;22.60;;;;;;;2.91;80.58;101069.52;1787883;80;21148;-84
2021/03/04 04:01:38;;;;;;;30.68;20.65;;;;;;;2.90;80.53;101072.02;1787943;80;21897;-84
2021/03/04 04:04:15;;;;;;;24.50;17.73;;;;;;;2.89;80.50;101068.91;1787768;80;21144;-85
2021/03/04 04:06:42;;;;;;;27.52;19.20;;;;;;;2.88;80.43;101072.34;1787970;80;21132;-84
2021/03/04 04:09:09;;;;;;;21.82;16.15;;;;;;;2.84;80.29;101076.86;1787863;80;21247;-84
2021/03/04 04:11:36;;;;;;;30.10;20.05;;;;;;;2.79;80.20;101068.76;1788055;80;21144;-85
2021/03/04 04:14:04;;;;;;;31.68;21.60;;;;;;;2.75;80.33;101071.09;1787823;80;21887;-84
2021/03/04 04:16:34;;;;;;;28.85;21.25;;;;;;;2.72;80.36;101068.80;1787964;80;21348;-84
2021/03/04 04:19:01;;;;;;;30.27;20.35;;;;;;;2.75;80.47;101067.20;1787916;80;21203;-85
2021/03/04 04:21:32;;;;;;;28.90;20.23;;;;;;;2.78;80.50;101071.26;1753033;80;21137;-84
2021/03/04 04:23:59;;;;;;;29.25;20.12;;;;;;;2.81;80.48;101068.86;1787995;80;21144;-83
2021/03/04 04:26:26;;;;;;;22.37;15.75;;;;;;;2.81;80.38;101072.76;1778582;80;22879;-85
2021/03/04 04:28:53;;;;;;;25.52;16.95;;;;;;;2.75;80.13;101071.98;1787985;80;21140;-84
2021/03/04 04:31:21;;;;;;;23.30;14.93;;;;;;;2.72;80.18;101068.80;1788010;80;21208;-85
2021/03/04 04:33:48;;;;;;;21.93;15.48;;;;;;;2.68;80.06;101066.83;1787966;80;21188;-85
2021/03/04 04:36:15;;;;;;;21.62;14.18;;;;;;;2.64;80.06;101063.52;1788045;80;21136;-86
2021/03/04 04:38:42;;;;;;;20.50;13.38;;;;;;;2.61;80.03;101059.83;1788076;80;21917;-86
2021/03/04 04:41:09;;;;;;;22.02;15.48;;;;;;;2.60;80.11;101056.34;1788088;80;21758;-86
2021/03/04 04:43:36;;;;;;;18.60;12.30;;;;;;;2.58;80.08;101068.34;1788009;80;21607;-86
2021/03/04 04:46:12;;;;;;;20.52;14.50;;;;;;;2.58;80.16;101056.65;1776233;80;21177;-84
2021/03/04 04:48:43;;;;;;;21.42;13.62;;;;;;;2.61;80.14;101049.43;1784384;80;21112;-84
2021/03/04 04:51:12;;;;;;;20.08;12.95;;;;;;;2.61;80.08;101050.73;1791183;80;21894;-84
2021/03/04 04:53:40;;;;;;;17.40;12.33;;;;;;;2.62;80.06;101049.94;1754313;81;21140;-84
2021/03/04 04:56:08;;;;;;;16.27;11.55;;;;;;;2.62;80.02;101053.42;1733514;82;21189;-83
2021/03/04 04:58:35;;;;;;;18.12;11.68;;;;;;;2.62;79.91;101048.64;1739407;82;21188;-83
2021/03/04 05:01:02;;;;;;;15.43;10.15;;;;;;;2.62;79.98;101045.62;1760320;81;21144;-83
2021/03/04 05:03:29;;;;;;;17.62;12.10;;;;;;;2.63;79.92;101053.05;1760217;81;21827;-84
2021/03/04 05:05:56;;;;;;;15.18;10.53;;;;;;;2.63;79.94;101041.36;1732997;82;21163;-83
2021/03/04 05:08:23;;;;;;;14.63;9.95;;;;;;;2.65;79.91;101048.84;1749697;81;21187;-84
2021/03/04 05:10:50;;;;;;;14.50;10.35;;;;;;;2.67;79.96;101046.82;1725322;82;21213;-88
2021/03/04 05:13:17;;;;;;;13.88;9.75;;;;;;;2.71;79.99;101050.09;1725819;82;21679;-82
2021/03/04 05:15:45;;;;;;;16.80;10.72;;;;;;;2.75;79.90;101052.89;1744906;81;22627;-84
2021/03/04 05:18:13;;;;;;;13.62;9.48;;;;;;;2.76;79.86;101059.88;1728721;82;21189;-84
2021/03/04 05:20:43;;;;;;;15.00;11.00;;;;;;;2.71;79.70;101048.80;1724988;81;21603;-85
2021/03/04 05:23:11;;;;;;;17.65;11.08;;;;;;;2.73;79.86;101053.69;1728771;82;21672;-82
2021/03/04 05:25:38;;;;;;;14.80;10.95;;;;;;;2.70;79.85;101045.72;1725403;82;21254;-81
2021/03/04 05:28:06;;;;;;;16.55;11.30;;;;;;;2.72;79.91;101041.89;1730967;82;22107;-85
2021/03/04 05:30:33;;;;;;;28.52;13.22;;;;;;;2.73;79.93;101049.78;1718322;82;21504;-84
2021/03/04 05:33:02;;;;;;;18.48;11.38;;;;;;;2.75;79.95;101049.00;1724637;81;21572;-87
2021/03/04 05:35:29;;;;;;;19.45;13.10;;;;;;;2.77;79.99;101057.37;1729917;82;21184;-87
2021/03/04 05:37:57;;;;;;;16.90;11.73;;;;;;;2.78;80.03;101061.78;1730147;82;21211;-81
2021/03/04 05:40:25;;;;;;;21.00;13.25;;;;;;;2.80;80.10;101061.88;1723401;82;22505;-86
2021/03/04 05:42:52;;;;;;;17.67;11.78;;;;;;;2.83;80.12;101057.73;1722287;82;21254;-84
2021/03/04 05:45:19;;;;;;;13.88;9.58;;;;;;;2.83;80.03;101058.15;1730288;82;21230;-84
2021/03/04 05:47:50;;;;;;;14.47;9.50;;;;;;;2.82;79.93;101057.27;1732435;82;21714;-81
2021/03/04 05:50:18;;;;;;;10.80;8.15;;;;;;;2.74;79.72;101065.01;1778167;80;21136;-84
2021/03/04 05:53:07;;;;;;;13.18;8.73;;;;;;;2.66;79.91;101068.81;1764864;80;22801;-84
2021/03/04 05:55:34;;;;;;;11.50;8.53;;;;;;;2.61;80.07;101076.72;1770225;80;21167;-84
2021/03/04 05:58:01;;;;;;;12.75;8.60;;;;;;;2.53;80.08;101075.87;1767772;80;21158;-84
2021/03/04 06:00:29;;;;;;;11.90;7.85;;;;;;;2.44;80.14;101075.29;1778186;80;21340;-84
2021/03/04 06:02:57;;;;;;;10.18;7.85;;;;;;;2.43;80.43;101085.58;1744948;81;21191;-85
2021/03/04 06:05:26;;;;;;;12.15;8.98;;;;;;;2.43;80.46;101078.67;1771738;80;21889;-84
2021/03/04 06:07:53;;;;;;;10.35;7.53;;;;;;;2.41;80.48;101084.59;1769981;80;21161;-84
2021/03/04 06:10:22;;;;;;;8.43;7.00;;;;;;;2.40;80.40;101087.97;1770862;80;21656;-84
2021/03/04 06:12:48;;;;;;;8.00;6.80;;;;;;;2.44;80.34;101091.25;1780986;80;21164;-85
2021/03/04 06:15:15;;;;;;;8.98;7.25;;;;;;;2.43;80.22;101103.36;1780984;80;21255;-84
2021/03/04 06:17:59;;;;;;;11.68;7.85;;;;;;;2.41;80.18;101104.96;1780822;80;22859;-83
2021/03/04 06:20:37;;;;;;;;;;;;;;;2.42;80.27;101104.17;1783349;80;21085;-85
2021/03/04 06:23:04;;;;;;;8.98;6.72;;;;;;;2.42;80.23;101110.67;1780497;80;20334;-85
2021/03/04 06:25:31;;;;;;;8.00;5.85;;;;;;;2.42;80.13;101103.25;1748891;82;21153;-85
2021/03/04 06:27:58;;;;;;;7.55;6.17;;;;;;;2.45;80.11;101111.25;1748931;81;21208;-85
2021/03/04 06:30:27;;;;;;;10.45;6.03;;;;;;;2.48;80.08;101106.27;1739169;80;21809;-84
2021/03/04 06:33:00;;;;;;;9.00;5.72;;;;;;;2.48;79.87;101114.95;1748754;80;21196;-85
2021/03/04 06:35:42;;;;;;;7.33;5.90;;;;;;;2.48;79.81;101107.56;1780978;80;21113;-85
2021/03/04 06:38:20;;;;;;;8.60;6.53;;;;;;;2.45;79.62;101118.64;1781059;80;21714;-84
2021/03/04 06:40:49;;;;;;;7.90;5.83;;;;;;;2.37;79.64;101126.36;1748881;81;21694;-85
2021/03/04 06:43:22;;;;;;;8.33;6.95;;;;;;;2.33;79.77;101125.27;1749180;82;21794;-85
2021/03/04 06:45:50;;;;;;;;;;;;;;;2.34;79.82;101124.44;1751633;80;21133;-85
2021/03/04 06:48:21;;;;;;;7.78;6.20;;;;;;;2.37;79.98;101126.36;1748764;81;20223;-85
2021/03/04 06:50:49;;;;;;;10.35;7.83;;;;;;;2.44;80.03;101144.52;1781213;80;21251;-86
2021/03/04 06:53:19;;;;;;;10.30;7.72;;;;;;;2.43;79.94;101137.12;1781102;80;21180;-85
2021/03/04 06:55:52;;;;;;;10.65;7.85;;;;;;;2.39;79.84;101141.64;1781163;80;21983;-85
2021/03/04 06:58:36;;;;;;;10.23;7.78;;;;;;;2.37;80.05;101141.95;1780965;80;21734;-85
2021/03/04 07:01:16;;;;;;;11.93;7.47;;;;;;;2.39;80.10;101134.25;1748665;82;21571;-84
2021/03/04 07:03:50;;;;;;;10.10;8.55;;;;;;;2.36;80.10;101150.52;1781225;80;21571;-84
2021/03/04 07:06:20;;;;;;;10.20;8.08;;;;;;;2.28;80.18;101135.75;1781126;80;21149;-85
2021/03/04 07:08:49;;;;;;;10.40;8.10;;;;;;;2.32;80.27;101145.94;1781035;80;22855;-85
2021/03/04 07:11:20;;;;;;;9.70;8.38;;;;;;;2.29;80.92;101135.34;1780914;80;21159;-85
2021/03/04 07:13:47;;;;;;;9.10;7.70;;;;;;;2.31;81.18;101141.56;1748522;81;21121;-85
2021/03/04 07:16:35;;;;;;;9.55;7.10;;;;;;;2.38;81.54;101143.72;1748874;81;21221;-85
2021/03/04 07:19:03;;;;;;;10.82;8.18;;;;;;;2.48;81.42;101138.74;1748816;82;21105;-85
2021/03/04 07:21:40;;;;;;;8.05;7.00;;;;;;;2.61;81.29;101140.39;1748795;81;22887;-85
2021/03/04 07:24:08;;;;;;;8.25;6.40;;;;;;;2.82;81.03;101142.16;1748467;81;21169;-85
2021/03/04 07:26:38;;;;;;;7.70;6.47;;;;;;;3.03;80.72;101133.08;1748666;81;21136;-85
2021/03/04 07:29:08;;;;;;;8.30;6.97;;;;;;;3.21;80.44;101128.11;1748611;81;21634;-85
2021/03/04 07:31:38;;;;;;;9.13;7.00;;;;;;;3.42;80.28;101119.39;1748924;81;21157;-86
2021/03/04 07:34:10;;;;;;;7.95;6.15;;;;;;;3.60;79.96;101120.86;1727062;80;24392;-85
2021/03/04 07:36:38;;;;;;;8.00;6.22;;;;;;;3.85;79.82;101123.62;1748387;81;21611;-86
2021/03/04 07:39:26;;;;;;;6.90;5.65;;;;;;;4.06;79.37;101129.17;1748601;82;21170;-85
2021/03/04 07:42:03;;;;;;;7.92;4.78;;;;;;;4.13;78.43;101122.58;1748497;82;21200;-84
2021/03/04 07:44:32;;;;;;;5.20;4.67;;;;;;;4.20;78.48;101119.52;1727919;82;21555;-84
2021/03/04 07:47:03;;;;;;;4.95;4.47;;;;;;;4.32;78.10;101121.52;1748632;82;21890;-86
2021/03/04 07:52:23;;;;;;;4.92;4.42;;;;;;;4.48;77.47;101120.23;1779114;79;23305;-85
2021/03/04 07:54:54;;;;;;;5.10;4.22;;;;;;;4.51;77.43;101119.95;1752748;81;21312;-84
2021/03/04 07:57:25;;;;;;;5.35;4.85;;;;;;;4.60;77.03;101123.95;1752325;81;21906;-83
2021/03/04 07:59:54;;;;;;;5.80;4.75;;;;;;;4.60;76.84;101108.31;1752166;81;21192;-84
2021/03/04 08:02:37;;;;;;;5.42;4.55;;;;;;;4.81;77.13;101107.27;1752313;81;21223;-85
2021/03/04 08:05:17;;;;;;;5.62;4.90;;;;;;;5.05;76.98;101106.38;1752269;81;21571;-84
2021/03/04 08:07:49;;;;;;;6.30;4.80;;;;;;;5.26;76.50;101103.99;1752578;81;21174;-86
2021/03/04 08:10:21;;;;;;;6.78;4.90;;;;;;;5.45;76.28;101102.34;1723191;81;21898;-86
2021/03/04 08:13:03;;;;;;;6.83;4.30;;;;;;;5.58;75.74;101098.22;1752404;81;21156;-86
2021/03/04 08:15:39;;;;;;;5.20;4.62;;;;;;;5.61;74.88;101094.47;1751673;81;21192;-86
2021/03/04 08:18:20;;;;;;;6.75;5.10;;;;;;;5.69;75.26;101096.16;1752367;81;21093;-86
2021/03/04 08:20:49;;;;;;;13.30;5.30;;;;;;;5.88;75.11;101087.52;1752281;81;21199;-86
2021/03/04 08:23:17;;;;;;;6.67;5.22;;;;;;;6.00;74.73;101084.64;1752575;81;22053;-85
2021/03/04 08:25:45;;;;;;;6.00;4.67;;;;;;;6.08;74.42;101084.62;1752466;81;21128;-85
2021/03/04 08:28:27;;;;;;;4.80;3.87;;;;;;;6.19;74.32;101089.03;1752500;81;21156;-85
2021/03/04 08:30:54;;;;;;;4.67;3.45;;;;;;;6.25;73.93;101094.97;1751823;81;21187;-85
2021/03/04 08:33:34;;;;;;;5.35;3.27;;;;;;;6.23;73.44;101094.88;1752448;81;21136;-85
2021/03/04 08:36:02;;;;;;;3.40;3.10;;;;;;;6.25;73.44;101092.34;1752572;80;21192;-84
2021/03/04 08:38:37;;;;;;;4.03;3.08;;;;;;;6.29;73.25;101084.75;1752460;81;21124;-85
2021/03/04 08:41:04;;;;;;;6.45;4.15;;;;;;;6.36;73.09;101088.53;1725063;81;21136;-85
2021/03/04 08:43:32;;;;;;;4.12;3.35;;;;;;;6.36;72.69;101085.91;1752573;81;21203;-86
2021/03/04 08:46:04;;;;;;;4.40;3.80;;;;;;;6.47;72.57;101082.08;1752482;81;21618;-85
2021/03/04 08:48:32;;;;;;;4.60;3.75;;;;;;;6.52;72.17;101071.86;1752835;81;22792;-86
2021/03/04 08:51:03;;;;;;;4.28;3.87;;;;;;;6.52;71.84;101081.01;1752284;80;21191;-86
2021/03/04 08:53:32;;;;;;;7.10;4.33;;;;;;;6.51;71.56;101079.20;1752424;81;21551;-86
2021/03/04 08:56:01;;;;;;;5.30;4.45;;;;;;;6.49;71.62;101069.97;1752370;81;21224;-84
2021/03/04 08:58:30;;;;;;;6.33;4.65;;;;;;;6.60;71.46;101075.71;1752585;81;21155;-85
2021/03/04 09:01:00;;;;;;;6.12;4.78;;;;;;;6.66;71.43;101074.67;1741907;81;22198;-85
2021/03/04 09:03:29;;;;;;;5.42;4.87;;;;;;;6.77;71.24;101076.48;1740077;81;21165;-86
2021/03/04 09:06:06;;;;;;;6.50;4.25;;;;;;;6.76;70.62;101083.45;1740167;82;21562;-85
2021/03/04 09:08:41;;;;;;;6.87;5.00;;;;;;;6.90;71.24;101082.75;1740074;82;21593;-85
2021/03/04 09:11:27;;;;;;;4.85;4.35;;;;;;;7.09;70.72;101081.84;1740070;82;21159;-85
2021/03/04 09:14:04;;;;;;;4.58;4.10;;;;;;;7.15;70.26;101082.14;1739982;82;21890;-86
2021/03/04 09:16:50;;;;;;;5.33;4.37;;;;;;;7.07;68.56;101083.92;1739894;82;21138;-86
2021/03/04 09:22:20;;;;;;;5.87;4.10;;;;;;;6.95;69.32;101079.94;1811198;78;22631;-84
2021/03/04 09:24:49;;;;;;;7.17;4.50;;;;;;;6.96;69.22;101082.13;1796236;79;21186;-85
2021/03/04 09:27:18;;;;;;;4.33;3.75;;;;;;;7.00;68.75;101078.81;1796863;79;21778;-84
2021/03/04 09:29:45;;;;;;;5.25;4.00;;;;;;;6.79;67.66;101074.44;1797036;79;21103;-86
2021/03/04 09:32:12;;;;;;;4.67;3.70;;;;;;;6.71;68.32;101073.59;1796977;79;21234;-85
2021/03/04 09:34:43;;;;;;;11.38;4.25;;;;;;;6.83;68.58;101079.37;1797057;79;21582;-85
2021/03/04 09:37:14;;;;;;;5.65;4.05;;;;;;;6.93;68.51;101075.47;1797033;79;21619;-85
2021/03/04 09:39:44;;;;;;;5.97;4.08;;;;;;;7.01;68.45;101091.98;1797130;79;21889;-84
2021/03/04 09:42:16;;;;;;;6.42;4.62;;;;;;;7.13;68.47;101080.27;1796880;79;21136;-82
2021/03/04 09:44:54;;;;;;;11.15;4.00;;;;;;;7.28;68.32;101081.35;1796941;79;21613;-86
2021/03/04 09:50:27;;;;;;;5.67;4.62;;;;;;;7.50;66.66;101088.42;1889222;76;22643;-86
2021/03/04 09:53:08;;;;;;;5.53;4.70;;;;;;;7.28;66.84;101081.35;1857404;77;21107;-85
2021/03/04 09:55:41;;;;;;;5.85;4.80;;;;;;;7.16;66.86;101083.03;1857570;77;22007;-84
2021/03/04 09:58:17;;;;;;;7.40;5.30;;;;;;;7.10;66.85;101084.96;1857592;77;21673;-84
2021/03/04 10:00:45;;;;;;;6.78;5.62;;;;;;;7.05;66.43;101093.44;1826704;77;21142;-85
2021/03/04 10:03:15;;;;;;;9.40;5.67;;;;;;;6.93;66.87;101089.44;1857404;77;21190;-84
2021/03/04 10:05:51;;;;;;;6.28;5.40;;;;;;;6.92;66.89;101088.95;1857240;77;22308;-84
2021/03/04 10:08:19;;;;;;;7.37;5.45;;;;;;;6.92;66.48;101091.98;1857493;77;21924;-87
2021/03/04 10:10:49;;;;;;;7.92;5.87;;;;;;;6.80;66.62;101094.52;1857565;77;21154;-85
2021/03/04 10:13:33;;;;;;;9.05;5.47;;;;;;;6.86;67.21;101099.56;1857560;77;21542;-85
2021/03/04 10:16:14;;;;;;;7.50;5.40;;;;;;;6.98;67.17;101094.48;1856117;77;21155;-84
2021/03/04 10:18:50;;;;;;;6.87;5.70;;;;;;;6.92;66.60;101109.88;1857315;77;21150;-85
2021/03/04 10:21:36;;;;;;;7.47;5.60;;;;;;;6.77;66.71;101106.15;1830430;77;21099;-85
2021/03/04 10:24:05;;;;;;;6.35;5.17;;;;;;;6.68;66.60;101112.30;1857233;77;21111;-85
2021/03/04 10:26:34;;;;;;;7.15;5.60;;;;;;;6.55;66.49;101111.20;1857391;77;21110;-85
2021/03/04 10:29:02;;;;;;;7.92;5.67;;;;;;;6.37;66.82;101113.87;1857355;77;21213;-85
2021/03/04 10:31:29;;;;;;;11.68;7.28;;;;;;;6.17;66.59;101108.55;1857390;77;21178;-85
2021/03/04 10:34:01;;;;;;;9.15;6.40;;;;;;;6.02;67.05;101112.66;1857031;77;21142;-84
2021/03/04 10:36:28;;;;;;;7.92;5.72;;;;;;;6.04;67.47;101111.40;1857302;76;21115;-85
2021/03/04 10:38:55;;;;;;;12.05;6.70;;;;;;;6.08;67.54;101115.06;1857271;77;21088;-85
2021/03/04 10:41:22;;;;;;;8.50;6.42;;;;;;;6.09;67.55;101112.95;1857214;77;21189;-85
2021/03/04 10:43:49;;;;;;;6.92;5.95;;;;;;;5.94;67.26;101107.83;1857473;77;21150;-86
2021/03/04 10:46:16;;;;;;;10.13;6.65;;;;;;;5.83;67.33;101113.81;1857446;77;21874;-85
2021/03/04 10:48:44;;;;;;;8.95;6.08;;;;;;;5.78;67.72;101111.37;1857149;75;21174;-85
2021/03/04 10:51:11;;;;;;;10.28;6.40;;;;;;;5.79;67.85;101106.66;1857235;77;21151;-85
2021/03/04 10:53:38;;;;;;;8.08;6.47;;;;;;;5.78;67.86;101112.68;1857232;77;21135;-85
2021/03/04 10:56:05;;;;;;;8.63;6.47;;;;;;;5.72;67.82;101112.38;1857401;76;21114;-85
2021/03/04 10:58:33;;;;;;;10.35;7.25;;;;;;;5.72;67.99;101114.99;1857544;77;22936;-86
2021/03/04 11:01:00;;;;;;;8.83;6.55;;;;;;;5.71;68.09;101113.22;1856770;77;21160;-86
2021/03/04 11:03:27;;;;;;;11.40;7.33;;;;;;;5.78;68.29;101111.37;1856676;77;21083;-86
2021/03/04 11:05:54;;;;;;;8.45;6.45;;;;;;;5.86;68.45;101123.12;1856719;77;21118;-86
2021/03/04 11:08:22;;;;;;;10.08;7.42;;;;;;;5.90;68.19;101121.56;1856696;77;21115;-86
2021/03/04 11:10:49;;;;;;;9.25;6.62;;;;;;;5.86;68.22;101130.96;1856778;77;23322;-86
2021/03/04 11:13:16;;;;;;;10.35;6.65;;;;;;;5.79;68.09;101132.78;1856656;77;21174;-86
2021/03/04 11:15:44;;;;;;;8.53;6.05;;;;;;;5.68;68.24;101127.42;1856806;77;21155;-86
2021/03/04 11:18:11;;;;;;;8.33;6.30;;;;;;;5.66;68.47;101135.17;1856816;77;21119;-86
2021/03/04 11:20:38;;;;;;;9.95;6.37;;;;;;;5.62;68.44;101128.00;1856735;77;21558;-85
2021/03/04 11:23:05;;;;;;;7.67;5.97;;;;;;;5.58;68.55;101129.56;1856708;77;21940;-86
2021/03/04 11:25:40;;;;;;;6.92;5.70;;;;;;;5.47;68.42;101125.92;1856708;77;21131;-86
2021/03/04 11:28:08;;;;;;;6.00;4.87;;;;;;;5.46;68.75;101127.61;1856594;77;21107;-85
2021/03/04 11:30:36;;;;;;;11.18;5.25;;;;;;;5.47;68.70;101123.30;1857629;77;21076;-85
2021/03/04 11:33:04;;;;;;;6.92;5.50;;;;;;;5.42;68.82;101132.19;1857118;77;21182;-86
2021/03/04 11:35:32;;;;;;;8.05;5.95;;;;;;;5.39;68.93;101133.36;1856687;77;21876;-86
2021/03/04 11:37:59;;;;;;;8.65;5.45;;;;;;;5.33;68.89;101140.46;1856648;77;21221;-85
2021/03/04 11:40:26;;;;;;;9.88;5.67;;;;;;;5.20;68.87;101132.39;1856720;77;21099;-86
2021/03/04 11:42:53;;;;;;;6.72;5.28;;;;;;;5.15;69.20;101133.84;1856743;77;21111;-85
2021/03/04 11:45:21;;;;;;;7.62;5.45;;;;;;;5.16;69.47;101134.35;1856750;77;21130;-86
2021/03/04 11:47:48;;;;;;;7.33;5.33;;;;;;;5.22;69.79;101130.75;1856774;77;21963;-85